createdAt,value
2019-03-17T12:31:03.602Z,1.20
2019-03-17T12:33:33.202Z,1.13
2019-03-17T12:36:02.596Z,1.77
2019-03-17T12:38:32.289Z,1.20
2019-03-17T12:41:01.347Z,1.07
2019-03-17T12:43:31.100Z,1.00
2019-03-17T12:46:00.656Z,0.93
2019-03-17T12:48:29.546Z,1.00
2019-03-17T12:50:58.854Z,1.23
2019-03-17T12:53:27.760Z,0.87
2019-03-17T12:55:57.314Z,0.70
2019-03-17T12:58:26.544Z,1.23
2019-03-17T13:00:56.155Z,0.90
2019-03-17T13:03:25.744Z,0.80
2019-03-17T13:05:54.992Z,1.17
2019-03-17T13:08:23.906Z,1.20
2019-03-17T13:10:53.482Z,1.00
2019-03-17T13:13:22.633Z,1.00
2019-03-17T13:15:52.552Z,0.80
2019-03-17T13:18:21.509Z,1.10
2019-03-17T13:20:50.677Z,1.40
2019-03-17T13:23:20.276Z,0.80
2019-03-17T13:25:53.053Z,1.17
2019-03-17T13:28:24.670Z,1.50
2019-03-17T13:30:58.859Z,1.30
2019-03-17T13:33:32.357Z,1.67
2019-03-17T13:36:01.623Z,1.60
2019-03-17T13:38:43.429Z,1.50
2019-03-17T13:41:23.952Z,1.57
2019-03-17T13:43:59.611Z,1.40
2019-03-17T13:46:35.467Z,1.10
2019-03-17T13:49:09.320Z,1.37
2019-03-17T13:51:41.519Z,0.97
2019-03-17T13:54:11.093Z,0.90
2019-03-17T13:56:48.416Z,1.30
2019-03-17T13:59:22.499Z,1.20
2019-03-17T14:01:59.084Z,1.30
2019-03-17T14:04:35.938Z,1.50
2019-03-17T14:07:07.698Z,1.53
2019-03-17T14:09:42.536Z,1.33
2019-03-17T14:12:22.305Z,1.50
2019-03-17T14:14:57.772Z,1.60
2019-03-17T14:17:32.860Z,1.47
2019-03-17T14:22:42.145Z,1.73
2019-03-17T14:25:14.751Z,1.53
2019-03-17T14:27:48.082Z,1.40
2019-03-17T14:30:17.068Z,1.60
2019-03-17T14:32:48.695Z,1.50
2019-03-17T14:35:21.124Z,1.27
2019-03-17T14:37:49.468Z,1.80
2019-03-17T14:40:18.618Z,1.60
2019-03-17T14:42:48.343Z,1.50
2019-03-17T14:45:18.029Z,1.50
2019-03-17T14:47:48.800Z,1.67
2019-03-17T14:50:19.878Z,1.10
2019-03-17T14:52:49.396Z,1.00
2019-03-17T14:55:18.727Z,1.00
2019-03-17T14:57:48.525Z,1.30
2019-03-17T15:00:18.679Z,1.50
2019-03-17T15:02:49.990Z,1.20
2019-03-17T15:05:19.939Z,1.40
2019-03-17T15:07:48.864Z,1.10
2019-03-17T15:10:19.152Z,1.40
2019-03-17T15:12:48.995Z,1.70
2019-03-17T15:15:20.267Z,1.37
2019-03-17T15:17:49.300Z,1.00
2019-03-17T15:20:19.125Z,1.00
2019-03-17T15:22:52.749Z,1.40
2019-03-17T15:25:22.408Z,1.50
2019-03-17T15:27:52.044Z,1.60
2019-03-17T15:30:21.740Z,2.40
2019-03-17T15:32:51.374Z,1.50
2019-03-17T15:35:21.362Z,1.70
2019-03-17T15:37:50.919Z,1.83
2019-03-17T15:40:20.589Z,1.80
2019-03-17T15:42:50.527Z,2.20
2019-03-17T15:45:20.231Z,1.73
2019-03-17T15:47:49.801Z,1.60
2019-03-17T15:50:19.658Z,1.57
2019-03-17T15:52:52.812Z,1.50
2019-03-17T15:55:23.665Z,1.30
2019-03-17T15:57:53.505Z,1.80
2019-03-17T16:00:26.795Z,1.70
2019-03-17T16:02:53.095Z,1.73
2019-03-17T16:05:23.099Z,1.67
2019-03-17T16:07:52.686Z,1.70
2019-03-17T16:10:24.886Z,1.50
2019-03-17T16:12:53.769Z,1.20
2019-03-17T16:15:22.670Z,1.20
2019-03-17T16:17:52.616Z,1.43
2019-03-17T16:20:25.540Z,1.40
2019-03-17T16:22:55.563Z,1.30
2019-03-17T16:25:26.129Z,1.40
2019-03-17T16:27:56.829Z,2.10
2019-03-17T16:30:25.756Z,1.40
2019-03-17T16:32:55.118Z,1.90
2019-03-17T16:35:24.677Z,1.60
2019-03-17T16:37:54.397Z,1.53
2019-03-17T16:40:24.501Z,1.43
2019-03-17T16:42:54.268Z,1.30
2019-03-17T16:45:24.149Z,1.40
2019-03-17T16:47:53.528Z,2.37
2019-03-17T16:50:22.769Z,1.83
2019-03-17T16:52:54.965Z,2.80
2019-03-17T16:55:28.734Z,1.50
2019-03-17T16:57:57.933Z,1.10
2019-03-17T17:00:27.574Z,1.07
2019-03-17T17:02:57.614Z,1.40
2019-03-17T17:05:28.375Z,1.40
2019-03-17T17:07:59.834Z,1.00
2019-03-17T17:10:29.920Z,1.23
2019-03-17T17:13:01.511Z,1.00
2019-03-17T17:15:31.056Z,1.07
2019-03-17T17:18:00.274Z,1.00
2019-03-17T17:20:30.083Z,0.90
2019-03-17T17:23:02.978Z,1.43
2019-03-17T17:25:35.066Z,1.40
2019-03-17T17:28:04.621Z,1.50
2019-03-17T17:30:34.178Z,1.53
2019-03-17T17:33:04.223Z,1.30
2019-03-17T17:35:33.789Z,1.27
2019-03-17T17:38:02.755Z,1.70
2019-03-17T17:40:32.709Z,1.10
2019-03-17T17:43:01.642Z,1.30
2019-03-17T17:45:31.300Z,1.00
2019-03-17T17:48:04.282Z,1.00
2019-03-17T17:50:34.281Z,1.00
2019-03-17T17:53:03.603Z,1.30
2019-03-17T17:55:33.156Z,0.70
2019-03-17T17:58:02.109Z,0.80
2019-03-17T18:00:33.750Z,0.80
2019-03-17T18:03:03.628Z,0.87
2019-03-17T18:05:32.535Z,1.10
2019-03-17T18:08:01.487Z,1.07
2019-03-17T18:10:31.170Z,1.10
2019-03-17T18:13:00.966Z,0.90
2019-03-17T18:15:30.526Z,1.20
2019-03-17T18:18:01.216Z,1.07
2019-03-17T18:20:30.764Z,1.33
2019-03-17T18:23:00.297Z,1.40
2019-03-17T18:25:29.237Z,1.07
2019-03-17T18:27:58.549Z,1.43
2019-03-17T18:30:27.419Z,1.23
2019-03-17T18:32:57.031Z,1.33
2019-03-17T18:35:26.190Z,1.30
2019-03-17T18:37:55.713Z,1.90
2019-03-17T18:40:25.250Z,2.10
2019-03-17T18:42:55.049Z,1.60
2019-03-17T18:45:23.986Z,1.70
2019-03-17T18:47:53.546Z,1.97
2019-03-17T18:50:23.372Z,1.50
2019-03-17T18:52:52.248Z,1.53
2019-03-17T18:55:25.064Z,1.90
2019-03-17T18:57:55.374Z,1.40
2019-03-17T19:00:24.249Z,1.60
2019-03-17T19:02:53.810Z,1.50
2019-03-17T19:05:23.626Z,1.50
2019-03-17T19:07:54.177Z,1.70
2019-03-17T19:10:23.717Z,1.77
2019-03-17T19:12:53.530Z,1.47
2019-03-17T19:15:22.419Z,1.33
2019-03-17T19:17:51.967Z,1.53
2019-03-17T19:20:21.808Z,1.30
2019-03-17T19:22:51.359Z,1.43
2019-03-17T19:25:20.940Z,1.40
2019-03-17T19:27:50.803Z,1.50
2019-03-17T19:30:19.713Z,1.50
2019-03-17T19:32:49.556Z,1.57
2019-03-17T19:35:19.473Z,1.63
2019-03-17T19:37:49.353Z,1.40
2019-03-17T19:40:18.291Z,1.20
2019-03-17T19:42:58.657Z,1.50
2019-03-17T19:45:21.232Z,1.70
2019-03-17T19:47:50.146Z,1.60
2019-03-17T19:50:20.226Z,1.27
2019-03-17T19:52:53.083Z,1.30
2019-03-17T19:55:22.773Z,1.30
2019-03-17T19:57:52.839Z,1.20
2019-03-17T20:00:21.957Z,1.60
2019-03-17T20:02:50.927Z,1.43
2019-03-17T20:05:20.966Z,1.50
2019-03-17T20:07:49.875Z,1.40
2019-03-17T20:10:21.423Z,1.60
2019-03-17T20:12:51.268Z,1.53
2019-03-17T20:15:20.145Z,1.40
2019-03-17T20:17:49.064Z,1.37
2019-03-17T20:20:19.668Z,1.53
2019-03-17T20:22:48.946Z,1.90
2019-03-17T20:25:17.908Z,1.63
2019-03-17T20:27:48.029Z,1.87
2019-03-17T20:30:16.970Z,2.00
2019-03-17T20:32:46.538Z,1.70
2019-03-17T20:35:19.564Z,1.80
2019-03-17T20:37:49.622Z,1.67
2019-03-17T20:40:18.638Z,1.40
2019-03-17T20:42:48.727Z,1.63
2019-03-17T20:45:20.151Z,1.40
2019-03-17T20:47:48.463Z,1.20
2019-03-17T20:50:17.786Z,1.50
2019-03-17T20:52:48.592Z,1.13
2019-03-17T20:55:17.524Z,1.53
2019-03-17T20:57:49.922Z,1.00
2019-03-17T21:00:22.006Z,1.27
2019-03-17T21:02:51.029Z,1.33
2019-03-17T21:05:21.057Z,1.37
2019-03-17T21:07:50.663Z,1.60
2019-03-17T21:10:19.579Z,1.40
2019-03-17T21:12:50.448Z,1.30
2019-03-17T21:15:20.028Z,1.57
2019-03-17T21:17:50.156Z,1.50
2019-03-17T21:20:20.251Z,1.30
2019-03-17T21:22:49.158Z,1.20
2019-03-17T21:25:18.873Z,1.47
2019-03-17T21:27:48.756Z,1.30
2019-03-17T21:30:18.573Z,1.60
2019-03-17T21:32:47.541Z,1.40
2019-03-17T21:35:17.531Z,1.40
2019-03-17T21:37:47.394Z,1.30
2019-03-17T21:40:16.300Z,1.13
2019-03-17T21:42:46.828Z,1.50
2019-03-17T21:45:15.733Z,1.47
2019-03-17T21:47:45.265Z,1.50
2019-03-17T21:50:14.959Z,1.50
2019-03-17T21:52:44.520Z,1.50
2019-03-17T21:55:13.513Z,1.33
2019-03-17T21:57:43.060Z,1.40
2019-03-17T22:00:13.012Z,1.47
2019-03-17T22:02:42.980Z,2.23
2019-03-17T22:05:12.031Z,1.37
2019-03-17T22:07:49.334Z,1.47
2019-03-17T22:10:13.100Z,1.73
2019-03-17T22:12:42.602Z,1.90
2019-03-17T22:15:13.029Z,1.93
2019-03-17T22:17:42.698Z,1.90
2019-03-17T22:20:11.696Z,2.37
2019-03-17T22:22:41.672Z,1.93
2019-03-17T22:25:12.956Z,1.80
2019-03-17T22:27:42.491Z,1.73
2019-03-17T22:30:13.402Z,2.10
2019-03-17T22:32:42.270Z,2.17
2019-03-17T22:35:11.141Z,2.00
2019-03-17T22:37:40.988Z,1.80
2019-03-17T22:40:10.787Z,1.80
2019-03-17T22:42:40.312Z,2.30
2019-03-17T22:45:09.653Z,2.30
2019-03-17T22:47:38.522Z,2.30
2019-03-17T22:50:08.400Z,1.87
2019-03-17T22:52:38.335Z,1.63
2019-03-17T22:55:07.203Z,2.37
2019-03-17T22:57:36.079Z,1.90
2019-03-17T23:00:08.551Z,2.10
2019-03-17T23:02:37.416Z,2.30
2019-03-17T23:05:07.005Z,1.80
2019-03-17T23:07:36.989Z,2.47
2019-03-17T23:10:06.271Z,2.13
2019-03-17T23:12:35.795Z,2.03
2019-03-17T23:15:05.906Z,2.77
2019-03-17T23:17:34.771Z,1.97
2019-03-17T23:20:03.985Z,2.30
2019-03-17T23:22:33.828Z,2.20
2019-03-17T23:25:03.349Z,2.00
2019-03-17T23:27:32.880Z,2.33
2019-03-17T23:30:02.860Z,4.07
2019-03-17T23:32:31.750Z,2.37
2019-03-17T23:35:01.281Z,2.47
2019-03-17T23:37:31.271Z,2.67
2019-03-17T23:40:00.802Z,2.27
2019-03-17T23:42:29.689Z,3.67
2019-03-17T23:44:59.624Z,2.97
2019-03-17T23:47:28.531Z,2.47
2019-03-17T23:49:58.049Z,3.00
2019-03-17T23:52:27.264Z,3.00
2019-03-17T23:54:56.130Z,2.70
2019-03-17T23:57:24.988Z,3.03
2019-03-17T23:59:54.338Z,3.63
